Time,TemperatureF,DewpointF,PressureIn,WindDirection,WindDirectionDegrees,WindSpeedMPH,WindSpeedGustMPH,Humidity,HourlyPrecipIn,Conditions,Clouds,dailyrainin,SolarRadiationWatts/m^2,SoftwareType,DateUTC
2013-02-08 00:01:00,17.0,12.0,-100.00,NNE,17,5.0,10.0,82,0.00,,,-99.99,0.000000,,2013-02-08 06:01:00,
2013-02-08 00:10:00,16.0,12.0,-100.00,North,5,7.0,15.0,83,0.00,,,0.00,0.000000,,2013-02-08 06:10:00,
2013-02-08 00:32:00,16.0,12.0,-100.00,North,5,7.0,15.0,83,0.00,,,0.00,0.000000,,2013-02-08 06:32:00,
2013-02-08 00:42:00,16.0,12.0,-100.00,North,5,7.0,15.0,83,0.00,,,0.00,0.000000,,2013-02-08 06:42:00,
2013-02-08 00:52:00,16.0,12.0,-100.00,North,5,7.0,15.0,83,0.00,,,0.00,0.000000,,2013-02-08 06:52:00,
2013-02-08 01:01:00,16.0,12.0,-100.00,North,5,7.0,15.0,83,0.00,,,0.00,0.000000,,2013-02-08 07:01:00,
2013-02-08 01:10:00,13.0,8.0,-100.00,North,358,5.0,12.0,80,0.00,,,0.00,0.000000,,2013-02-08 07:10:00,
2013-02-08 01:32:00,13.0,8.0,-100.00,North,358,5.0,12.0,80,0.00,,,0.00,0.000000,,2013-02-08 07:32:00,
2013-02-08 01:42:00,13.0,8.0,-100.00,North,358,5.0,12.0,80,0.00,,,0.00,0.000000,,2013-02-08 07:42:00,
2013-02-08 01:52:00,13.0,8.0,-100.00,North,358,5.0,12.0,80,0.00,,,0.00,0.000000,,2013-02-08 07:52:00,
2013-02-08 02:01:00,13.0,8.0,-100.00,North,358,5.0,12.0,80,0.00,,,0.00,0.000000,,2013-02-08 08:01:00,
2013-02-08 02:10:00,12.0,8.0,-100.00,North,0,5.0,8.0,83,0.00,,,0.00,0.000000,,2013-02-08 08:10:00,
2013-02-08 02:32:00,12.0,8.0,-100.00,North,0,5.0,8.0,83,0.00,,,0.00,0.000000,,2013-02-08 08:32:00,
2013-02-08 02:42:00,12.0,8.0,-100.00,North,0,5.0,8.0,83,0.00,,,0.00,0.000000,,2013-02-08 08:42:00,
2013-02-08 02:52:00,12.0,8.0,-100.00,North,0,5.0,8.0,83,0.00,,,0.00,0.000000,,2013-02-08 08:52:00,
2013-02-08 03:03:00,12.0,8.0,-100.00,North,0,5.0,8.0,83,0.00,,,0.00,0.000000,,2013-02-08 09:03:00,
2013-02-08 03:10:00,8.0,4.0,-100.00,North,353,3.0,8.0,83,0.00,,,0.00,0.000000,,2013-02-08 09:10:00,
2013-02-08 03:32:00,8.0,4.0,-100.00,North,353,3.0,8.0,83,0.00,,,0.00,0.000000,,2013-02-08 09:32:00,
2013-02-08 03:42:00,8.0,4.0,-100.00,North,353,3.0,8.0,83,0.00,,,0.00,0.000000,,2013-02-08 09:42:00,
2013-02-08 03:52:00,8.0,4.0,-100.00,North,353,3.0,8.0,83,0.00,,,0.00,0.000000,,2013-02-08 09:52:00,
2013-02-08 04:01:00,8.0,4.0,-100.00,North,353,3.0,8.0,83,0.00,,,0.00,0.000000,,2013-02-08 10:01:00,
2013-02-08 04:10:00,5.0,2.0,-100.00,North,352,3.0,5.0,86,0.00,,,0.00,0.000000,,2013-02-08 10:10:00,
2013-02-08 04:32:00,5.0,2.0,-100.00,North,352,3.0,5.0,86,0.00,,,0.00,0.000000,,2013-02-08 10:32:00,
2013-02-08 04:42:00,5.0,2.0,-100.00,North,352,3.0,5.0,86,0.00,,,0.00,0.000000,,2013-02-08 10:42:00,
2013-02-08 04:52:00,5.0,2.0,-100.00,North,352,3.0,5.0,86,0.00,,,0.00,0.000000,,2013-02-08 10:52:00,
2013-02-08 05:01:00,5.0,2.0,-100.00,North,352,3.0,5.0,86,0.00,,,0.00,0.000000,,2013-02-08 11:01:00,
2013-02-08 05:10:00,4.0,1.0,-100.00,NNW,348,3.0,5.0,86,0.00,,,0.00,0.000000,,2013-02-08 11:10:00,
2013-02-08 05:32:00,4.0,1.0,-100.00,NNW,348,3.0,5.0,86,0.00,,,0.00,0.000000,,2013-02-08 11:32:00,
2013-02-08 05:42:00,4.0,1.0,-100.00,NNW,348,3.0,5.0,86,0.00,,,0.00,0.000000,,2013-02-08 11:42:00,
2013-02-08 05:52:00,4.0,1.0,-100.00,NNW,348,3.0,5.0,86,0.00,,,0.00,0.000000,,2013-02-08 11:52:00,
2013-02-08 06:02:00,4.0,1.0,-100.00,NNW,348,3.0,5.0,86,0.00,,,0.00,0.000000,,2013-02-08 12:02:00,
2013-02-08 06:10:00,0.0,-4.0,-100.00,WSW,254,1.0,3.0,82,0.00,,,0.00,0.000000,,2013-02-08 12:10:00,
2013-02-08 06:33:00,0.0,-4.0,-100.00,WSW,254,1.0,3.0,82,0.00,,,0.00,0.000000,,2013-02-08 12:33:00,
2013-02-08 06:42:00,0.0,-4.0,-100.00,WSW,254,1.0,3.0,82,0.00,,,0.00,0.000000,,2013-02-08 12:42:00,
2013-02-08 06:52:00,0.0,-4.0,-100.00,WSW,254,1.0,3.0,82,0.00,,,0.00,0.000000,,2013-02-08 12:52:00,
2013-02-08 07:01:00,0.0,-4.0,-100.00,WSW,254,1.0,3.0,82,0.00,,,0.00,0.000000,,2013-02-08 13:01:00,
2013-02-08 07:10:00,-2.0,-6.0,-100.00,SW,224,1.0,2.0,82,0.00,,,0.00,0.000000,,2013-02-08 13:10:00,
2013-02-08 07:32:00,-2.0,-6.0,-100.00,SW,224,1.0,2.0,82,0.00,,,0.00,0.000000,,2013-02-08 13:32:00,
2013-02-08 07:43:00,-2.0,-6.0,-100.00,SW,224,1.0,2.0,82,0.00,,,0.00,0.000000,,2013-02-08 13:43:00,
2013-02-08 07:52:00,-2.0,-6.0,-100.00,SW,224,1.0,2.0,82,0.00,,,0.00,0.000000,,2013-02-08 13:52:00,
2013-02-08 08:02:00,-2.0,-6.0,-100.00,SW,224,1.0,2.0,82,0.00,,,0.00,0.000000,,2013-02-08 14:02:00,
2013-02-08 08:10:00,-2.0,-6.0,-100.00,SSE,165,1.0,2.0,81,0.00,,,0.00,5.000000,,2013-02-08 14:10:00,
2013-02-08 08:42:00,-2.0,-6.0,-100.00,SSE,165,1.0,2.0,81,0.00,,,0.00,5.000000,,2013-02-08 14:42:00,
2013-02-08 08:52:00,-2.0,-6.0,-100.00,SSE,165,1.0,2.0,81,0.00,,,0.00,5.000000,,2013-02-08 14:52:00,
2013-02-08 09:02:00,-2.0,-6.0,-100.00,SSE,165,1.0,2.0,81,0.00,,,0.00,5.000000,,2013-02-08 15:02:00,
2013-02-08 09:10:00,10.0,7.0,-100.00,NNE,19,4.0,8.0,88,0.00,,,-99.99,20.000000,,2013-02-08 15:10:00,
2013-02-08 09:32:00,10.0,7.0,-100.00,NNE,19,4.0,8.0,88,0.00,,,-99.99,20.000000,,2013-02-08 15:32:00,
2013-02-08 09:42:00,10.0,7.0,-100.00,NNE,19,4.0,8.0,88,0.00,,,-99.99,20.000000,,2013-02-08 15:42:00,
2013-02-08 09:52:00,10.0,7.0,-100.00,NNE,19,4.0,8.0,88,0.00,,,-99.99,20.000000,,2013-02-08 15:52:00,
2013-02-08 10:01:00,10.0,7.0,-100.00,NNE,19,4.0,8.0,88,0.00,,,-99.99,20.000000,,2013-02-08 16:01:00,
2013-02-08 10:10:00,14.0,9.0,-100.00,NNE,30,4.0,10.0,80,0.00,,,0.00,27.000000,,2013-02-08 16:10:00,
2013-02-08 10:32:00,14.0,9.0,-100.00,NNE,30,4.0,10.0,80,0.00,,,0.00,27.000000,,2013-02-08 16:32:00,
2013-02-08 10:42:00,14.0,9.0,-100.00,NNE,30,4.0,10.0,80,0.00,,,0.00,27.000000,,2013-02-08 16:42:00,
2013-02-08 10:52:00,14.0,9.0,-100.00,NNE,30,4.0,10.0,80,0.00,,,0.00,27.000000,,2013-02-08 16:52:00,
2013-02-08 11:03:00,14.0,9.0,-100.00,NNE,30,4.0,10.0,80,0.00,,,0.00,27.000000,,2013-02-08 17:03:00,
2013-02-08 11:10:00,18.0,10.0,-100.00,North,2,3.0,8.0,71,0.00,,,0.00,38.000000,,2013-02-08 17:10:00,
2013-02-08 11:33:00,18.0,10.0,-100.00,North,2,3.0,8.0,71,0.00,,,0.00,38.000000,,2013-02-08 17:33:00,
2013-02-08 11:42:00,18.0,10.0,-100.00,North,2,3.0,8.0,71,0.00,,,0.00,38.000000,,2013-02-08 17:42:00,
2013-02-08 11:53:00,18.0,10.0,-100.00,North,2,3.0,8.0,71,0.00,,,0.00,38.000000,,2013-02-08 17:53:00,
2013-02-08 12:02:00,18.0,10.0,-100.00,North,2,3.0,8.0,71,0.00,,,0.00,38.000000,,2013-02-08 18:02:00,
2013-02-08 12:10:00,23.0,13.0,-100.00,North,356,4.0,10.0,65,0.00,,,0.00,142.000000,,2013-02-08 18:10:00,
2013-02-08 12:44:00,23.0,13.0,-100.00,North,356,4.0,10.0,65,0.00,,,0.00,142.000000,,2013-02-08 18:44:00,
2013-02-08 12:52:00,23.0,13.0,-100.00,North,356,4.0,10.0,65,0.00,,,0.00,142.000000,,2013-02-08 18:52:00,
2013-02-08 13:02:00,23.0,13.0,-100.00,North,356,4.0,10.0,65,0.00,,,0.00,142.000000,,2013-02-08 19:02:00,
2013-02-08 13:10:00,26.0,13.0,-100.00,NNE,16,3.0,9.0,57,0.00,,,0.00,161.000000,,2013-02-08 19:10:00,
2013-02-08 13:42:00,26.0,13.0,-100.00,NNE,16,3.0,9.0,57,0.00,,,0.00,161.000000,,2013-02-08 19:42:00,
2013-02-08 13:52:00,26.0,13.0,-100.00,NNE,16,3.0,9.0,57,0.00,,,0.00,161.000000,,2013-02-08 19:52:00,
2013-02-08 14:02:00,26.0,13.0,-100.00,NNE,16,3.0,9.0,57,0.00,,,0.00,161.000000,,2013-02-08 20:02:00,
2013-02-08 14:10:00,28.0,14.0,-100.00,NW,306,2.0,8.0,54,0.00,,,0.00,159.000000,,2013-02-08 20:10:00,
2013-02-08 14:42:00,28.0,14.0,-100.00,NW,306,2.0,8.0,54,0.00,,,0.00,159.000000,,2013-02-08 20:42:00,
2013-02-08 14:52:00,28.0,14.0,-100.00,NW,306,2.0,8.0,54,0.00,,,0.00,159.000000,,2013-02-08 20:52:00,
2013-02-08 15:02:00,28.0,14.0,-100.00,NW,306,2.0,8.0,54,0.00,,,0.00,159.000000,,2013-02-08 21:02:00,
2013-02-08 15:10:00,26.0,11.0,-100.00,NNW,338,4.0,9.0,52,0.00,,,0.00,145.000000,,2013-02-08 21:10:00,
2013-02-08 15:42:00,26.0,11.0,-100.00,NNW,338,4.0,9.0,52,0.00,,,0.00,145.000000,,2013-02-08 21:42:00,
2013-02-08 15:52:00,26.0,11.0,-100.00,NNW,338,4.0,9.0,52,0.00,,,0.00,145.000000,,2013-02-08 21:52:00,
2013-02-08 16:02:00,26.0,11.0,-100.00,NNW,338,4.0,9.0,52,0.00,,,0.00,145.000000,,2013-02-08 22:02:00,
2013-02-08 16:10:00,27.0,12.0,-100.00,WNW,292,1.0,4.0,52,0.00,,,0.00,108.000000,,2013-02-08 22:10:00,
2013-02-08 16:42:00,27.0,12.0,-100.00,WNW,292,1.0,4.0,52,0.00,,,0.00,108.000000,,2013-02-08 22:42:00,
2013-02-08 16:52:00,27.0,12.0,-100.00,WNW,292,1.0,4.0,52,0.00,,,0.00,108.000000,,2013-02-08 22:52:00,
2013-02-08 17:01:00,27.0,12.0,-100.00,WNW,292,1.0,4.0,52,0.00,,,0.00,108.000000,,2013-02-08 23:01:00,
2013-02-08 17:10:00,16.0,8.0,-100.00,NNW,339,0.0,3.0,69,0.00,,,-99.99,13.000000,,2013-02-08 23:10:00,
2013-02-08 17:32:00,16.0,8.0,-100.00,NNW,339,0.0,3.0,69,0.00,,,-99.99,13.000000,,2013-02-08 23:32:00,
2013-02-08 17:42:00,16.0,8.0,-100.00,NNW,339,0.0,3.0,69,0.00,,,-99.99,13.000000,,2013-02-08 23:42:00,
2013-02-08 17:52:00,16.0,8.0,-100.00,NNW,339,0.0,3.0,69,0.00,,,-99.99,13.000000,,2013-02-08 23:52:00,
2013-02-08 18:02:00,16.0,8.0,-100.00,NNW,339,0.0,3.0,69,0.00,,,-99.99,13.000000,,2013-02-09 00:02:00,
2013-02-08 18:10:00,10.0,7.0,-100.00,ESE,117,0.0,1.0,87,0.00,,,0.00,0.000000,,2013-02-09 00:10:00,
2013-02-08 18:32:00,10.0,7.0,-100.00,ESE,117,0.0,1.0,87,0.00,,,0.00,0.000000,,2013-02-09 00:32:00,
2013-02-08 18:42:00,10.0,7.0,-100.00,ESE,117,0.0,1.0,87,0.00,,,0.00,0.000000,,2013-02-09 00:42:00,
2013-02-08 18:52:00,10.0,7.0,-100.00,ESE,117,0.0,1.0,87,0.00,,,0.00,0.000000,,2013-02-09 00:52:00,
2013-02-08 19:01:00,10.0,7.0,-100.00,ESE,117,0.0,1.0,87,0.00,,,0.00,0.000000,,2013-02-09 01:01:00,
2013-02-08 19:10:00,6.0,3.0,-100.00,North,356,0.0,0.0,88,0.00,,,-99.99,0.000000,,2013-02-09 01:10:00,
2013-02-08 19:32:00,6.0,3.0,-100.00,North,356,0.0,0.0,88,0.00,,,-99.99,0.000000,,2013-02-09 01:32:00,
2013-02-08 19:42:00,6.0,3.0,-100.00,North,356,0.0,0.0,88,0.00,,,-99.99,0.000000,,2013-02-09 01:42:00,
2013-02-08 19:52:00,6.0,3.0,-100.00,North,356,0.0,0.0,88,0.00,,,-99.99,0.000000,,2013-02-09 01:52:00,
2013-02-08 20:01:00,6.0,3.0,-100.00,North,356,0.0,0.0,88,0.00,,,-99.99,0.000000,,2013-02-09 02:01:00,
2013-02-08 20:10:00,4.0,1.0,-100.00,NE,37,0.0,0.0,87,0.00,,,0.00,0.000000,,2013-02-09 02:10:00,
2013-02-08 20:42:00,4.0,1.0,-100.00,NE,37,0.0,0.0,87,0.00,,,0.00,0.000000,,2013-02-09 02:42:00,
2013-02-08 20:53:00,4.0,1.0,-100.00,NE,37,0.0,0.0,87,0.00,,,0.00,0.000000,,2013-02-09 02:53:00,
2013-02-08 21:02:00,4.0,1.0,-100.00,NE,37,0.0,0.0,87,0.00,,,0.00,0.000000,,2013-02-09 03:02:00,
2013-02-08 21:10:00,2.0,-2.0,-100.00,NNW,347,1.0,1.0,83,0.00,,,0.00,0.000000,,2013-02-09 03:10:00,
2013-02-08 21:32:00,2.0,-2.0,-100.00,NNW,347,1.0,1.0,83,0.00,,,0.00,0.000000,,2013-02-09 03:32:00,
2013-02-08 21:42:00,2.0,-2.0,-100.00,NNW,347,1.0,1.0,83,0.00,,,0.00,0.000000,,2013-02-09 03:42:00,
2013-02-08 21:53:00,2.0,-2.0,-100.00,NNW,347,1.0,1.0,83,0.00,,,0.00,0.000000,,2013-02-09 03:53:00,
2013-02-08 22:02:00,2.0,-2.0,-100.00,NNW,347,1.0,1.0,83,0.00,,,0.00,0.000000,,2013-02-09 04:02:00,
2013-02-08 22:10:00,3.0,-1.0,-100.00,NE,36,0.0,0.0,84,0.00,,,0.00,0.000000,,2013-02-09 04:10:00,
2013-02-08 22:32:00,3.0,-1.0,-100.00,NE,36,0.0,0.0,84,0.00,,,0.00,0.000000,,2013-02-09 04:32:00,
2013-02-08 22:42:00,3.0,-1.0,-100.00,NE,36,0.0,0.0,84,0.00,,,0.00,0.000000,,2013-02-09 04:42:00,
2013-02-08 22:52:00,3.0,-1.0,-100.00,NE,36,0.0,0.0,84,0.00,,,0.00,0.000000,,2013-02-09 04:52:00,
2013-02-08 23:02:00,3.0,-1.0,-100.00,NE,36,0.0,0.0,84,0.00,,,0.00,0.000000,,2013-02-09 05:02:00,
2013-02-08 23:10:00,2.0,-2.0,-100.00,NNE,32,1.0,1.0,83,0.00,,,0.00,0.000000,,2013-02-09 05:10:00,
2013-02-08 23:32:00,2.0,-2.0,-100.00,NNE,32,1.0,1.0,83,0.00,,,0.00,0.000000,,2013-02-09 05:32:00,
2013-02-08 23:42:00,2.0,-2.0,-100.00,NNE,32,1.0,1.0,83,0.00,,,0.00,0.000000,,2013-02-09 05:42:00,
2013-02-08 23:52:00,2.0,-2.0,-100.00,NNE,32,1.0,1.0,83,0.00,,,0.00,0.000000,,2013-02-09 05:52:00,